sensor_id;sensor_type;location;lat;lon;timestamp;pressure;altitude;pressure_sealevel;temperature;humidity
55351;BME280;62194;49.480;10.986;2023-02-15T00:00:05;99724.25;;;0.14;92.02
55351;BME280;62194;49.480;10.986;2023-02-15T00:00:35;99735.16;;;0.25;92.07
55351;BME280;62194;49.480;10.986;2023-02-15T00:00:50;99757.72;;;0.40;92.12
55351;BME280;62194;49.480;10.986;2023-02-15T00:01:10;99737.94;;;0.30;91.89
55351;BME280;62194;49.480;10.986;2023-02-15T00:01:24;99712.94;;;0.12;92.54
55351;BME280;62194;49.480;10.986;2023-02-15T00:01:39;99728.88;;;0.19;92.24
55351;BME280;62194;49.480;10.986;2023-02-15T00:02:21;99746.38;;;0.21;92.07
55351;BME280;62194;49.480;10.986;2023-02-15T00:03:04;99729.28;;;0.11;92.78
55351;BME280;62194;49.480;10.986;2023-02-15T00:03:18;99729.28;;;0.11;92.51
55351;BME280;62194;49.480;10.986;2023-02-15T00:04:22;99755.94;;;0.17;92.49
55351;BME280;62194;49.480;10.986;2023-02-15T00:05:00;99721.41;;;-0.08;92.85
55351;BME280;62194;49.480;10.986;2023-02-15T00:05:08;99717.09;;;-0.09;92.90
55351;BME280;62194;49.480;10.986;2023-02-15T00:05:23;99732.81;;;-0.01;93.37
55351;BME280;62194;49.480;10.986;2023-02-15T00:05:44;99723.03;;;-0.07;92.86
55351;BME280;62194;49.480;10.986;2023-02-15T00:05:56;99720.00;;;-0.10;93.21
55351;BME280;62194;49.480;10.986;2023-02-15T00:06:16;99714.31;;;-0.14;93.29
55351;BME280;62194;49.480;10.986;2023-02-15T00:06:34;99744.22;;;0.07;93.60
55351;BME280;62194;49.480;10.986;2023-02-15T00:06:50;99748.53;;;0.08;93.58
55351;BME280;62194;49.480;10.986;2023-02-15T00:07:28;99730.44;;;0.03;93.67
55351;BME280;62194;49.480;10.986;2023-02-15T00:07:34;99751.28;;;0.13;93.63
55351;BME280;62194;49.480;10.986;2023-02-15T00:07:48;99735.25;;;0.01;93.05
55351;BME280;62194;49.480;10.986;2023-02-15T00:07:54;99756.09;;;0.11;93.07
55351;BME280;62194;49.480;10.986;2023-02-15T00:07:59;99733.28;;;-0.04;93.21
55351;BME280;62194;49.480;10.986;2023-02-15T00:08:04;99737.81;;;-0.04;93.29
55351;BME280;62194;49.480;10.986;2023-02-15T00:08:15;99754.38;;;0.05;93.36
55351;BME280;62194;49.480;10.986;2023-02-15T00:08:45;99748.06;;;0.11;93.78
55351;BME280;62194;49.480;10.986;2023-02-15T00:09:07;99757.50;;;0.13;93.44
55351;BME280;62194;49.480;10.986;2023-02-15T00:09:19;99737.94;;;0.01;93.90
55351;BME280;62194;49.480;10.986;2023-02-15T00:09:34;99747.00;;;0.12;93.83
55351;BME280;62194;49.480;10.986;2023-02-15T00:09:55;99716.63;;;-0.06;93.87
55351;BME280;62194;49.480;10.986;2023-02-15T00:10:42;99757.69;;;0.23;93.09
55351;BME280;62194;49.480;10.986;2023-02-15T00:10:50;99717.78;;;-0.02;92.42
55351;BME280;62194;49.480;10.986;2023-02-15T00:12:27;99723.66;;;0.12;92.97
55351;BME280;62194;49.480;10.986;2023-02-15T00:12:33;99722.25;;;0.10;93.03
55351;BME280;62194;49.480;10.986;2023-02-15T00:12:47;99736.59;;;0.15;92.82
55351;BME280;62194;49.480;10.986;2023-02-15T00:12:59;99758.69;;;0.34;92.62
55351;BME280;62194;49.480;10.986;2023-02-15T00:13:47;99724.47;;;0.13;92.54
55351;BME280;62194;49.480;10.986;2023-02-15T00:14:25;99735.06;;;0.19;92.63
55351;BME280;62194;49.480;10.986;2023-02-15T00:14:36;99710.06;;;0.02;92.65
55351;BME280;62194;49.480;10.986;2023-02-15T00:14:50;99749.38;;;0.25;92.86
55351;BME280;62194;49.480;10.986;2023-02-15T00:15:23;99710.22;;;-0.05;92.66
55351;BME280;62194;49.480;10.986;2023-02-15T00:15:39;99742.53;;;0.17;92.97
55351;BME280;62194;49.480;10.986;2023-02-15T00:16:10;99713.13;;;-0.06;92.47
55351;BME280;62194;49.480;10.986;2023-02-15T00:16:23;99732.66;;;0.06;92.61
55351;BME280;62194;49.480;10.986;2023-02-15T00:16:52;99752.78;;;0.20;92.56
55351;BME280;62194;49.480;10.986;2023-02-15T00:17:01;99716.72;;;-0.01;92.56
55351;BME280;62194;49.480;10.986;2023-02-15T00:17:28;99723.03;;;-0.07;92.68
55351;BME280;62194;49.480;10.986;2023-02-15T00:17:33;99728.34;;;0.05;92.40
55351;BME280;62194;49.480;10.986;2023-02-15T00:17:42;99702.09;;;-0.10;92.57
55351;BME280;62194;49.480;10.986;2023-02-15T00:17:50;99730.22;;;0.05;92.73
55351;BME280;62194;49.480;10.986;2023-02-15T00:17:59;99733.50;;;0.07;92.76
55351;BME280;62194;49.480;10.986;2023-02-15T00:18:05;99729.97;;;0.06;93.12
55351;BME280;62194;49.480;10.986;2023-02-15T00:18:15;99728.94;;;0.07;93.19
55351;BME280;62194;49.480;10.986;2023-02-15T00:18:21;99732.19;;;0.09;93.30
55351;BME280;62194;49.480;10.986;2023-02-15T00:18:26;99742.88;;;0.21;93.39
55351;BME280;62194;49.480;10.986;2023-02-15T00:18:32;99705.66;;;-0.04;92.82
55351;BME280;62194;49.480;10.986;2023-02-15T00:18:38;99729.84;;;0.13;93.16
55351;BME280;62194;49.480;10.986;2023-02-15T00:18:47;99738.56;;;0.20;93.13
55351;BME280;62194;49.480;10.986;2023-02-15T00:18:55;99712.06;;;-0.05;93.11
55351;BME280;62194;49.480;10.986;2023-02-15T00:19:01;99724.63;;;0.06;92.90
55351;BME280;62194;49.480;10.986;2023-02-15T00:19:07;99714.88;;;0.00;92.89
55351;BME280;62194;49.480;10.986;2023-02-15T00:19:15;99734.38;;;0.12;93.09
55351;BME280;62194;49.480;10.986;2023-02-15T00:19:21;99711.13;;;0.01;92.98
55351;BME280;62194;49.480;10.986;2023-02-15T00:19:29;99708.91;;;-0.02;93.04
55351;BME280;62194;49.480;10.986;2023-02-15T00:19:38;99696.22;;;-0.07;92.92
55351;BME280;62194;49.480;10.986;2023-02-15T00:19:47;99732.19;;;0.09;92.85
55351;BME280;62194;49.480;10.986;2023-02-15T00:19:53;99725.34;;;0.02;92.67
55351;BME280;62194;49.480;10.986;2023-02-15T00:19:58;99728.13;;;0.07;93.03
55351;BME280;62194;49.480;10.986;2023-02-15T00:20:11;99730.56;;;0.08;92.88
55351;BME280;62194;49.480;10.986;2023-02-15T00:20:19;99714.19;;;-0.07;92.52
55351;BME280;62194;49.480;10.986;2023-02-15T00:20:28;99700.69;;;-0.12;92.57
55351;BME280;62194;49.480;10.986;2023-02-15T00:20:36;99721.75;;;-0.04;92.50
55351;BME280;62194;49.480;10.986;2023-02-15T00:20:48;99742.25;;;0.02;92.72
55351;BME280;62194;49.480;10.986;2023-02-15T00:20:56;99728.97;;;-0.05;92.87
55351;BME280;62194;49.480;10.986;2023-02-15T00:21:12;99735.00;;;0.03;93.40
55351;BME280;62194;49.480;10.986;2023-02-15T00:21:17;99723.03;;;-0.07;93.35
55351;BME280;62194;49.480;10.986;2023-02-15T00:21:23;99716.28;;;-0.09;93.29
55351;BME280;62194;49.480;10.986;2023-02-15T00:21:30;99705.25;;;-0.13;93.46
55351;BME280;62194;49.480;10.986;2023-02-15T00:21:38;99721.75;;;-0.04;93.85
55351;BME280;62194;49.480;10.986;2023-02-15T00:21:44;99710.13;;;-0.10;93.72
55351;BME280;62194;49.480;10.986;2023-02-15T00:21:50;99716.97;;;-0.02;93.83
55351;BME280;62194;49.480;10.986;2023-02-15T00:21:55;99728.59;;;0.04;93.66
55351;BME280;62194;49.480;10.986;2023-02-15T00:22:01;99714.19;;;-0.07;93.66
55351;BME280;62194;49.480;10.986;2023-02-15T00:22:06;99741.63;;;0.12;93.55
55351;BME280;62194;49.480;10.986;2023-02-15T00:22:11;99721.53;;;-0.03;93.31
55351;BME280;62194;49.480;10.986;2023-02-15T00:22:17;99707.91;;;-0.13;93.26
55351;BME280;62194;49.480;10.986;2023-02-15T00:22:26;99710.59;;;-0.13;93.12
55351;BME280;62194;49.480;10.986;2023-02-15T00:22:31;99731.78;;;0.01;93.50
55351;BME280;62194;49.480;10.986;2023-02-15T00:22:36;99723.13;;;-0.02;93.38
55351;BME280;62194;49.480;10.986;2023-02-15T00:22:42;99719.66;;;-0.02;93.53
55351;BME280;62194;49.480;10.986;2023-02-15T00:22:47;99730.22;;;0.05;93.69
55351;BME280;62194;49.480;10.986;2023-02-15T00:22:53;99722.41;;;0.03;93.66
55351;BME280;62194;49.480;10.986;2023-02-15T00:22:58;99743.59;;;0.16;93.99
55351;BME280;62194;49.480;10.986;2023-02-15T00:23:04;99707.31;;;-0.03;93.62
55351;BME280;62194;49.480;10.986;2023-02-15T00:23:09;99724.63;;;0.06;93.69
55351;BME280;62194;49.480;10.986;2023-02-15T00:23:15;99702.97;;;-0.04;93.54
55351;BME280;62194;49.480;10.986;2023-02-15T00:23:20;99725.44;;;0.07;93.92
55351;BME280;62194;49.480;10.986;2023-02-15T00:23:26;99706.25;;;-0.02;93.61
55351;BME280;62194;49.480;10.986;2023-02-15T00:23:32;99735.78;;;0.15;93.50
55351;BME280;62194;49.480;10.986;2023-02-15T00:23:46;99746.38;;;0.21;93.76
55351;BME280;62194;49.480;10.986;2023-02-15T00:23:53;99716.91;;;0.10;93.69
55351;BME280;62194;49.480;10.986;2023-02-15T00:24:00;99744.59;;;0.27;93.54
55351;BME280;62194;49.480;10.986;2023-02-15T00:24:08;99746.69;;;0.25;93.30
55351;BME280;62194;49.480;10.986;2023-02-15T00:24:18;99700.06;;;-0.03;93.13
55351;BME280;62194;49.480;10.986;2023-02-15T00:24:24;99741.00;;;0.21;93.40
55351;BME280;62194;49.480;10.986;2023-02-15T00:24:32;99741.34;;;0.25;93.17
55351;BME280;62194;49.480;10.986;2023-02-15T00:24:40;99744.81;;;0.26;92.54
55351;BME280;62194;49.480;10.986;2023-02-15T00:24:45;99726.94;;;0.14;92.67
55351;BME280;62194;49.480;10.986;2023-02-15T00:24:53;99704.16;;;0.00;92.38
55351;BME280;62194;49.480;10.986;2023-02-15T00:24:59;99716.66;;;0.11;92.54
55351;BME280;62194;49.480;10.986;2023-02-15T00:25:04;99711.47;;;0.05;92.58
55351;BME280;62194;49.480;10.986;2023-02-15T00:25:13;99720.41;;;0.10;92.45
55351;BME280;62194;49.480;10.986;2023-02-15T00:25:18;99737.03;;;0.24;92.45
55351;BME280;62194;49.480;10.986;2023-02-15T00:25:26;99725.31;;;0.13;92.28
55351;BME280;62194;49.480;10.986;2023-02-15T00:25:31;99704.63;;;-0.03;92.19
55351;BME280;62194;49.480;10.986;2023-02-15T00:25:37;99739.59;;;0.19;92.45
55351;BME280;62194;49.480;10.986;2023-02-15T00:25:45;99735.56;;;0.16;92.50
55351;BME280;62194;49.480;10.986;2023-02-15T00:26:02;99728.22;;;0.12;92.45
55351;BME280;62194;49.480;10.986;2023-02-15T00:26:11;99733.34;;;0.13;92.54
55351;BME280;62194;49.480;10.986;2023-02-15T00:26:20;99717.16;;;0.08;92.53
55351;BME280;62194;49.480;10.986;2023-02-15T00:26:26;99718.78;;;0.09;92.82
55351;BME280;62194;49.480;10.986;2023-02-15T00:26:34;99742.06;;;0.20;92.78
55351;BME280;62194;49.480;10.986;2023-02-15T00:26:41;99699.59;;;0.01;92.89
55351;BME280;62194;49.480;10.986;2023-02-15T00:26:47;99702.75;;;-0.03;92.94
55351;BME280;62194;49.480;10.986;2023-02-15T00:26:55;99719.25;;;0.06;92.96
55351;BME280;62194;49.480;10.986;2023-02-15T00:27:00;99727.06;;;0.08;92.81
55351;BME280;62194;49.480;10.986;2023-02-15T00:27:06;99720.09;;;0.07;92.78
55351;BME280;62194;49.480;10.986;2023-02-15T00:27:11;99721.94;;;0.06;92.73
55351;BME280;62194;49.480;10.986;2023-02-15T00:27:17;99701.34;;;-0.05;92.98
55351;BME280;62194;49.480;10.986;2023-02-15T00:27:25;99753.13;;;0.24;93.19
55351;BME280;62194;49.480;10.986;2023-02-15T00:27:30;99742.06;;;0.20;93.10
55351;BME280;62194;49.480;10.986;2023-02-15T00:27:36;99700.63;;;-0.01;92.91
55351;BME280;62194;49.480;10.986;2023-02-15T00:27:41;99720.50;;;0.15;92.93
55351;BME280;62194;49.480;10.986;2023-02-15T00:27:47;99719.94;;;0.13;92.94
55351;BME280;62194;49.480;10.986;2023-02-15T00:27:52;99738.66;;;0.25;92.95
55351;BME280;62194;49.480;10.986;2023-02-15T00:27:59;99722.16;;;0.16;92.96
55351;BME280;62194;49.480;10.986;2023-02-15T00:28:07;99703.16;;;0.06;92.96
55351;BME280;62194;49.480;10.986;2023-02-15T00:28:13;99726.19;;;0.19;92.85
55351;BME280;62194;49.480;10.986;2023-02-15T00:28:18;99729.47;;;0.21;92.96
55351;BME280;62194;49.480;10.986;2023-02-15T00:28:24;99719.09;;;0.13;93.04
55351;BME280;62194;49.480;10.986;2023-02-15T00:28:30;99698.78;;;0.00;92.84
55351;BME280;62194;49.480;10.986;2023-02-15T00:28:44;99720.50;;;0.15;92.65
55351;BME280;62194;49.480;10.986;2023-02-15T00:28:49;99716.09;;;0.09;92.09
55351;BME280;62194;49.480;10.986;2023-02-15T00:28:55;99732.72;;;0.23;92.11
55351;BME280;62194;49.480;10.986;2023-02-15T00:29:01;99712.38;;;0.10;92.11
55351;BME280;62194;49.480;10.986;2023-02-15T00:29:08;99704.69;;;0.02;92.23
55351;BME280;62194;49.480;10.986;2023-02-15T00:29:24;99731.00;;;0.17;92.09
55351;BME280;62194;49.480;10.986;2023-02-15T00:29:29;99729.34;;;0.16;92.32
55351;BME280;62194;49.480;10.986;2023-02-15T00:29:35;99735.41;;;0.23;92.23
55351;BME280;62194;49.480;10.986;2023-02-15T00:29:48;99707.16;;;0.04;92.12
55351;BME280;62194;49.480;10.986;2023-02-15T00:29:55;99706.31;;;0.03;91.97
55351;BME280;62194;49.480;10.986;2023-02-15T00:30:01;99726.94;;;0.14;92.19
55351;BME280;62194;49.480;10.986;2023-02-15T00:30:09;99694.44;;;-0.01;92.28
55351;BME280;62194;49.480;10.986;2023-02-15T00:30:17;99712.84;;;0.07;91.93
55351;BME280;62194;49.480;10.986;2023-02-15T00:30:22;99698.41;;;-0.04;91.71
55351;BME280;62194;49.480;10.986;2023-02-15T00:30:28;99736.22;;;0.23;92.12
55351;BME280;62194;49.480;10.986;2023-02-15T00:30:36;99718.53;;;0.11;92.18
55351;BME280;62194;49.480;10.986;2023-02-15T00:30:41;99713.66;;;0.08;92.25
55351;BME280;62194;49.480;10.986;2023-02-15T00:30:47;99711.94;;;0.02;92.18
55351;BME280;62194;49.480;10.986;2023-02-15T00:31:02;99725.19;;;0.08;91.97
55351;BME280;62194;49.480;10.986;2023-02-15T00:31:10;99713.41;;;0.09;92.08
55351;BME280;62194;49.480;10.986;2023-02-15T00:31:19;99707.53;;;-0.05;92.12
55351;BME280;62194;49.480;10.986;2023-02-15T00:31:25;99705.44;;;-0.03;92.30
55351;BME280;62194;49.480;10.986;2023-02-15T00:31:32;99729.13;;;0.17;92.60
55351;BME280;62194;49.480;10.986;2023-02-15T00:31:41;99696.09;;;0.00;92.50
55351;BME280;62194;49.480;10.986;2023-02-15T00:31:50;99717.16;;;0.08;92.86
55351;BME280;62194;49.480;10.986;2023-02-15T00:31:58;99716.09;;;0.09;92.44
55351;BME280;62194;49.480;10.986;2023-02-15T00:32:03;99706.56;;;0.02;92.60
55351;BME280;62194;49.480;10.986;2023-02-15T00:32:09;99705.50;;;0.03;92.20
55351;BME280;62194;49.480;10.986;2023-02-15T00:32:14;99737.50;;;0.21;92.52
55351;BME280;62194;49.480;10.986;2023-02-15T00:32:19;99735.31;;;0.18;92.03
55351;BME280;62194;49.480;10.986;2023-02-15T00:32:28;99706.47;;;-0.04;92.38
55351;BME280;62194;49.480;10.986;2023-02-15T00:32:42;99724.13;;;0.09;92.35
55351;BME280;62194;49.480;10.986;2023-02-15T00:32:52;99719.25;;;0.06;92.54
55351;BME280;62194;49.480;10.986;2023-02-15T00:32:58;99717.16;;;0.08;92.49
55351;BME280;62194;49.480;10.986;2023-02-15T00:33:03;99734.72;;;0.16;92.09
55351;BME280;62194;49.480;10.986;2023-02-15T00:33:09;99748.47;;;0.19;92.03
55351;BME280;62194;49.480;10.986;2023-02-15T00:33:17;99729.84;;;0.13;92.02
55351;BME280;62194;49.480;10.986;2023-02-15T00:33:24;99718.44;;;0.06;92.23
55351;BME280;62194;49.480;10.986;2023-02-15T00:33:30;99703.22;;;-0.06;92.25
55351;BME280;62194;49.480;10.986;2023-02-15T00:33:41;99721.13;;;0.06;92.45
55351;BME280;62194;49.480;10.986;2023-02-15T00:33:46;99707.31;;;-0.03;92.37
55351;BME280;62194;49.480;10.986;2023-02-15T00:33:52;99723.81;;;0.06;92.55
55351;BME280;62194;49.480;10.986;2023-02-15T00:34:06;99695.06;;;-0.11;92.19
55351;BME280;62194;49.480;10.986;2023-02-15T00:34:18;99716.16;;;-0.03;91.96
55351;BME280;62194;49.480;10.986;2023-02-15T00:34:28;99702.31;;;-0.11;92.21
55351;BME280;62194;49.480;10.986;2023-02-15T00:34:36;99707.66;;;-0.11;92.04
55351;BME280;62194;49.480;10.986;2023-02-15T00:34:41;99714.44;;;-0.09;91.98
55351;BME280;62194;49.480;10.986;2023-02-15T00:34:49;99700.34;;;-0.16;92.29
55351;BME280;62194;49.480;10.986;2023-02-15T00:34:59;99699.19;;;-0.20;92.70
55351;BME280;62194;49.480;10.986;2023-02-15T00:35:07;99693.94;;;-0.15;92.76
55351;BME280;62194;49.480;10.986;2023-02-15T00:35:15;99704.41;;;-0.13;92.53
55351;BME280;62194;49.480;10.986;2023-02-15T00:35:21;99721.84;;;0.01;92.59
55351;BME280;62194;49.480;10.986;2023-02-15T00:35:31;99705.56;;;-0.09;92.64
55351;BME280;62194;49.480;10.986;2023-02-15T00:35:37;99741.41;;;0.13;92.99
55351;BME280;62194;49.480;10.986;2023-02-15T00:35:45;99718.69;;;0.04;92.65
55351;BME280;62194;49.480;10.986;2023-02-15T00:35:56;99710.78;;;-0.03;92.60
55351;BME280;62194;49.480;10.986;2023-02-15T00:36:14;99697.19;;;-0.13;92.60
55351;BME280;62194;49.480;10.986;2023-02-15T00:36:19;99736.50;;;0.10;92.59
55351;BME280;62194;49.480;10.986;2023-02-15T00:36:25;99733.13;;;0.03;92.61
55351;BME280;62194;49.480;10.986;2023-02-15T00:36:33;99734.31;;;0.07;92.45
55351;BME280;62194;49.480;10.986;2023-02-15T00:36:39;99700.81;;;-0.19;92.48
55351;BME280;62194;49.480;10.986;2023-02-15T00:36:44;99727.69;;;-0.02;92.27
55351;BME280;62194;49.480;10.986;2023-02-15T00:36:53;99726.88;;;-0.03;92.40
55351;BME280;62194;49.480;10.986;2023-02-15T00:37:02;99710.34;;;-0.11;92.62
55351;BME280;62194;49.480;10.986;2023-02-15T00:37:07;99741.53;;;0.07;92.58
55351;BME280;62194;49.480;10.986;2023-02-15T00:37:13;99722.00;;;-0.06;92.90
55351;BME280;62194;49.480;10.986;2023-02-15T00:37:23;99727.22;;;0.01;92.69
55351;BME280;62194;49.480;10.986;2023-02-15T00:37:29;99743.97;;;0.08;92.67
55351;BME280;62194;49.480;10.986;2023-02-15T00:37:34;99713.94;;;-0.06;92.82
55351;BME280;62194;49.480;10.986;2023-02-15T00:37:43;99717.44;;;-0.05;92.90
55351;BME280;62194;49.480;10.986;2023-02-15T00:37:57;99725.09;;;0.03;92.76
55351;BME280;62194;49.480;10.986;2023-02-15T00:38:08;99718.03;;;-0.03;92.94
55351;BME280;62194;49.480;10.986;2023-02-15T00:38:16;99741.03;;;0.10;92.58
55351;BME280;62194;49.480;10.986;2023-02-15T00:38:21;99703.03;;;-0.16;92.65
55351;BME280;62194;49.480;10.986;2023-02-15T00:38:27;99714.19;;;-0.07;92.47
55351;BME280;62194;49.480;10.986;2023-02-15T00:38:36;99743.16;;;0.08;92.89
55351;BME280;62194;49.480;10.986;2023-02-15T00:38:47;99725.22;;;-0.04;92.63
55351;BME280;62194;49.480;10.986;2023-02-15T00:38:56;99719.78;;;-0.09;92.83
55351;BME280;62194;49.480;10.986;2023-02-15T00:39:01;99705.47;;;-0.14;92.93
55351;BME280;62194;49.480;10.986;2023-02-15T00:39:10;99728.03;;;0.02;93.03
55351;BME280;62194;49.480;10.986;2023-02-15T00:39:33;99709.41;;;-0.05;92.88
55351;BME280;62194;49.480;10.986;2023-02-15T00:39:41;99699.19;;;-0.20;92.92
55351;BME280;62194;49.480;10.986;2023-02-15T00:39:50;99715.22;;;-0.08;92.79
55351;BME280;62194;49.480;10.986;2023-02-15T00:40:01;99722.22;;;-0.07;91.97
55351;BME280;62194;49.480;10.986;2023-02-15T00:40:10;99705.59;;;-0.21;91.83
55351;BME280;62194;49.480;10.986;2023-02-15T00:40:20;99701.84;;;-0.20;92.68
55351;BME280;62194;49.480;10.986;2023-02-15T00:40:28;99730.38;;;-0.02;92.46
55351;BME280;62194;49.480;10.986;2023-02-15T00:40:34;99698.94;;;-0.18;92.50
55351;BME280;62194;49.480;10.986;2023-02-15T00:40:39;99711.41;;;-0.12;92.67
55351;BME280;62194;49.480;10.986;2023-02-15T00:40:52;99694.41;;;-0.18;92.61
55351;BME280;62194;49.480;10.986;2023-02-15T00:40:59;99726.88;;;-0.03;92.33
55351;BME280;62194;49.480;10.986;2023-02-15T00:41:27;99696.50;;;-0.20;92.20
55351;BME280;62194;49.480;10.986;2023-02-15T00:41:32;99694.88;;;-0.21;92.61
55351;BME280;62194;49.480;10.986;2023-02-15T00:41:39;99701.06;;;-0.20;93.04
55351;BME280;62194;49.480;10.986;2023-02-15T00:41:45;99697.34;;;-0.19;93.10
55351;BME280;62194;49.480;10.986;2023-02-15T00:41:51;99698.16;;;-0.19;93.02
55351;BME280;62194;49.480;10.986;2023-02-15T00:41:59;99739.91;;;0.06;93.62
55351;BME280;62194;49.480;10.986;2023-02-15T00:42:07;99704.91;;;-0.16;93.58
55351;BME280;62194;49.480;10.986;2023-02-15T00:42:15;99703.84;;;-0.15;93.32
55351;BME280;62194;49.480;10.986;2023-02-15T00:42:23;99712.66;;;-0.03;93.30
55351;BME280;62194;49.480;10.986;2023-02-15T00:42:29;99716.16;;;-0.03;92.86
55351;BME280;62194;49.480;10.986;2023-02-15T00:42:37;99723.72;;;0.01;92.77
55351;BME280;62194;49.480;10.986;2023-02-15T00:42:52;99694.19;;;-0.16;92.11
55351;BME280;62194;49.480;10.986;2023-02-15T00:43:01;99713.13;;;-0.06;92.37
55351;BME280;62194;49.480;10.986;2023-02-15T00:43:09;99722.66;;;0.02;92.46
55351;BME280;62194;49.480;10.986;2023-02-15T00:43:15;99736.25;;;0.12;92.68
55351;BME280;62194;49.480;10.986;2023-02-15T00:43:20;99694.50;;;-0.13;92.72
55351;BME280;62194;49.480;10.986;2023-02-15T00:43:30;99704.50;;;-0.08;92.63
55351;BME280;62194;49.480;10.986;2023-02-15T00:43:39;99710.53;;;-0.01;93.04
55351;BME280;62194;49.480;10.986;2023-02-15T00:43:47;99740.09;;;0.16;92.83
55351;BME280;62194;49.480;10.986;2023-02-15T00:43:52;99701.34;;;-0.05;92.68
55351;BME280;62194;49.480;10.986;2023-02-15T00:44:01;99718.91;;;0.03;92.65
55351;BME280;62194;49.480;10.986;2023-02-15T00:44:07;99723.09;;;0.10;92.50
55351;BME280;62194;49.480;10.986;2023-02-15T00:44:16;99741.47;;;0.18;92.66
55351;BME280;62194;49.480;10.986;2023-02-15T00:44:21;99701.34;;;-0.05;92.72
55351;BME280;62194;49.480;10.986;2023-02-15T00:44:30;99722.50;;;0.08;92.41
55351;BME280;62194;49.480;10.986;2023-02-15T00:44:38;99701.94;;;-0.03;92.37
55351;BME280;62194;49.480;10.986;2023-02-15T00:44:46;99697.06;;;-0.06;92.50
55351;BME280;62194;49.480;10.986;2023-02-15T00:44:52;99712.75;;;0.02;92.20
55351;BME280;62194;49.480;10.986;2023-02-15T00:45:04;99705.44;;;-0.03;92.38
55351;BME280;62194;49.480;10.986;2023-02-15T00:45:12;99705.91;;;-0.06;92.07
55351;BME280;62194;49.480;10.986;2023-02-15T00:45:20;99704.63;;;-0.03;92.41
55351;BME280;62194;49.480;10.986;2023-02-15T00:45:26;99736.84;;;0.14;92.48
55351;BME280;62194;49.480;10.986;2023-02-15T00:45:31;99723.09;;;0.10;92.46
55351;BME280;62194;49.480;10.986;2023-02-15T00:45:39;99736.94;;;0.19;92.48
55351;BME280;62194;49.480;10.986;2023-02-15T00:45:49;99738.78;;;0.18;92.74
55351;BME280;62194;49.480;10.986;2023-02-15T00:45:55;99700.28;;;-0.04;92.34
55351;BME280;62194;49.480;10.986;2023-02-15T00:46:03;99695.41;;;-0.07;92.17
55351;BME280;62194;49.480;10.986;2023-02-15T00:46:09;99698.09;;;-0.07;92.25
55351;BME280;62194;49.480;10.986;2023-02-15T00:46:17;99705.09;;;-0.06;92.26
55351;BME280;62194;49.480;10.986;2023-02-15T00:46:34;99722.19;;;0.05;92.51
55351;BME280;62194;49.480;10.986;2023-02-15T00:46:49;99693.69;;;-0.13;92.42
55351;BME280;62194;49.480;10.986;2023-02-15T00:47:05;99726.16;;;0.02;92.61
55351;BME280;62194;49.480;10.986;2023-02-15T00:47:11;99728.94;;;0.07;92.42
55351;BME280;62194;49.480;10.986;2023-02-15T00:47:19;99714.28;;;-0.02;92.63
55351;BME280;62194;49.480;10.986;2023-02-15T00:47:24;99703.44;;;-0.07;92.39
55351;BME280;62194;49.480;10.986;2023-02-15T00:47:36;99707.19;;;-0.08;92.46
55351;BME280;62194;49.480;10.986;2023-02-15T00:47:41;99715.19;;;0.04;92.51
55351;BME280;62194;49.480;10.986;2023-02-15T00:47:47;99706.38;;;-0.09;92.33
55351;BME280;62194;49.480;10.986;2023-02-15T00:47:52;99731.69;;;0.12;92.72
55351;BME280;62194;49.480;10.986;2023-02-15T00:47:57;99714.19;;;-0.07;92.69
55351;BME280;62194;49.480;10.986;2023-02-15T00:48:13;99722.19;;;0.05;92.79
55351;BME280;62194;49.480;10.986;2023-02-15T00:48:19;99732.19;;;0.09;92.77
55351;BME280;62194;49.480;10.986;2023-02-15T00:48:25;99699.41;;;-0.10;92.53
55351;BME280;62194;49.480;10.986;2023-02-15T00:48:33;99716.16;;;-0.03;92.55
55351;BME280;62194;49.480;10.986;2023-02-15T00:48:38;99695.69;;;-0.20;92.53
55351;BME280;62194;49.480;10.986;2023-02-15T00:48:44;99696.34;;;-0.13;92.51
55351;BME280;62194;49.480;10.986;2023-02-15T00:48:49;99726.97;;;0.03;92.50
55351;BME280;62194;49.480;10.986;2023-02-15T00:48:58;99723.25;;;0.04;92.96
55351;BME280;62194;49.480;10.986;2023-02-15T00:49:04;99730.81;;;0.07;92.85
55351;BME280;62194;49.480;10.986;2023-02-15T00:49:10;99702.91;;;-0.09;92.58
55351;BME280;62194;49.480;10.986;2023-02-15T00:49:15;99724.06;;;0.04;92.78
55351;BME280;62194;49.480;10.986;2023-02-15T00:49:21;99726.75;;;0.04;92.93
55351;BME280;62194;49.480;10.986;2023-02-15T00:49:26;99701.56;;;-0.07;92.70
55351;BME280;62194;49.480;10.986;2023-02-15T00:49:31;99703.91;;;-0.10;92.63
55351;BME280;62194;49.480;10.986;2023-02-15T00:49:40;99731.47;;;0.14;92.47
55351;BME280;62194;49.480;10.986;2023-02-15T00:49:45;99701.56;;;-0.07;92.90
55351;BME280;62194;49.480;10.986;2023-02-15T00:49:57;99740.34;;;0.14;92.62
55351;BME280;62194;49.480;10.986;2023-02-15T00:50:02;99729.28;;;0.11;92.45
55351;BME280;62194;49.480;10.986;2023-02-15T00:50:08;99720.56;;;0.04;92.35
55351;BME280;62194;49.480;10.986;2023-02-15T00:50:18;99707.63;;;0.01;92.58
55351;BME280;62194;49.480;10.986;2023-02-15T00:50:24;99739.06;;;0.17;92.52
55351;BME280;62194;49.480;10.986;2023-02-15T00:50:30;99710.41;;;0.06;92.25
55351;BME280;62194;49.480;10.986;2023-02-15T00:50:41;99718.53;;;0.11;92.29
55351;BME280;62194;49.480;10.986;2023-02-15T00:50:53;99712.53;;;0.04;91.80
55351;BME280;62194;49.480;10.986;2023-02-15T00:50:59;99739.28;;;0.15;91.89
55351;BME280;62194;49.480;10.986;2023-02-15T00:51:05;99691.59;;;-0.11;92.07
55351;BME280;62194;49.480;10.986;2023-02-15T00:51:16;99717.28;;;0.02;91.86
55351;BME280;62194;49.480;10.986;2023-02-15T00:51:25;99711.81;;;-0.04;92.09
55351;BME280;62194;49.480;10.986;2023-02-15T00:51:34;99718.91;;;0.03;92.38
55351;BME280;62194;49.480;10.986;2023-02-15T00:51:39;99711.13;;;0.01;92.18
55351;BME280;62194;49.480;10.986;2023-02-15T00:51:44;99718.22;;;0.07;92.48
55351;BME280;62194;49.480;10.986;2023-02-15T00:51:58;99724.13;;;0.09;92.56
55351;BME280;62194;49.480;10.986;2023-02-15T00:52:04;99734.72;;;0.16;92.10
55351;BME280;62194;49.480;10.986;2023-02-15T00:52:10;99696.72;;;-0.10;91.99